createdAt,value
2022-10-25T00:01:19.517Z,72.85
2022-10-25T00:03:47.255Z,72.85
2022-10-25T00:06:15.149Z,73.11
2022-10-25T00:08:42.934Z,73.01
2022-10-25T00:11:17.008Z,72.54
2022-10-25T00:13:45.969Z,72.70
2022-10-25T00:16:15.654Z,73.21
2022-10-25T00:18:43.342Z,73.63
2022-10-25T00:21:11.134Z,73.63
2022-10-25T00:23:38.748Z,73.58
2022-10-25T00:26:09.350Z,73.42
2022-10-25T00:28:37.211Z,73.39
2022-10-25T00:31:08.522Z,73.51
2022-10-25T00:33:37.936Z,73.46
2022-10-25T00:36:06.535Z,73.69
2022-10-25T00:38:34.161Z,73.75
2022-10-25T00:41:02.593Z,73.94
2022-10-25T00:43:38.534Z,73.77
2022-10-25T00:46:13.654Z,74.17
2022-10-25T00:48:44.324Z,74.67
2022-10-25T00:51:12.031Z,74.81
2022-10-25T00:53:39.725Z,74.92
2022-10-25T00:56:14.375Z,75.42
2022-10-25T00:58:45.274Z,75.14
2022-10-25T01:01:15.913Z,75.10
2022-10-25T01:03:46.291Z,75.07
2022-10-25T01:06:21.543Z,75.19
2022-10-25T01:08:50.998Z,75.14
2022-10-25T01:11:18.788Z,75.44
2022-10-25T01:13:46.814Z,74.98
2022-10-25T01:16:24.741Z,74.62
2022-10-25T01:19:00.085Z,75.05
2022-10-25T01:21:45.344Z,74.88
2022-10-25T01:24:45.729Z,74.58
2022-10-25T01:27:31.159Z,74.33
2022-10-25T01:30:08.138Z,75.21
2022-10-25T01:33:06.913Z,75.26
2022-10-25T01:35:44.291Z,75.69
2022-10-25T01:38:38.507Z,75.88
2022-10-25T01:41:16.387Z,75.17
2022-10-25T01:43:56.467Z,75.02
2022-10-25T01:46:30.171Z,74.90
2022-10-25T01:49:04.622Z,75.26
2022-10-25T01:51:32.537Z,75.33
2022-10-25T01:54:00.426Z,75.80
2022-10-25T01:56:33.538Z,75.84
2022-10-25T01:59:26.871Z,75.89
2022-10-25T02:02:08.882Z,75.70
2022-10-25T02:04:48.532Z,75.26
2022-10-25T02:07:24.383Z,75.61
2022-10-25T02:10:00.503Z,75.32
2022-10-25T02:12:32.686Z,75.36
2022-10-25T02:15:09.639Z,75.83
2022-10-25T02:17:41.948Z,75.55
2022-10-25T02:20:14.513Z,75.58
2022-10-25T02:22:42.543Z,75.54
2022-10-25T02:25:11.073Z,76.01
2022-10-25T02:27:40.839Z,76.40
2022-10-25T02:30:09.475Z,76.54
2022-10-25T02:32:37.632Z,76.62
2022-10-25T02:35:06.165Z,76.81
2022-10-25T02:37:35.141Z,76.78
2022-10-25T02:40:02.822Z,76.32
2022-10-25T02:42:30.421Z,75.89
2022-10-25T02:44:57.950Z,75.56
2022-10-25T02:47:25.909Z,75.47
2022-10-25T02:49:53.522Z,75.39
2022-10-25T02:52:21.080Z,75.51
2022-10-25T02:54:50.001Z,74.98
2022-10-25T02:57:17.604Z,74.47
2022-10-25T02:59:45.151Z,74.54
2022-10-25T03:02:12.762Z,74.22
2022-10-25T03:04:40.329Z,74.29
2022-10-25T03:07:08.045Z,74.61
2022-10-25T03:09:35.644Z,74.57
2022-10-25T03:12:05.047Z,74.66
2022-10-25T03:14:32.681Z,74.43
2022-10-25T03:17:00.268Z,74.87
2022-10-25T03:19:27.850Z,75.02
2022-10-25T03:21:55.473Z,75.28
2022-10-25T03:24:23.032Z,74.54
2022-10-25T03:26:50.652Z,74.90
2022-10-25T03:29:19.781Z,75.05
2022-10-25T03:31:47.755Z,74.70
2022-10-25T03:34:15.310Z,74.93
2022-10-25T03:36:42.914Z,74.75
2022-10-25T03:39:11.254Z,74.96
2022-10-25T03:41:38.839Z,75.26
2022-10-25T03:44:06.497Z,75.32
2022-10-25T03:46:35.585Z,75.32
2022-10-25T03:49:03.183Z,75.62
2022-10-25T03:51:30.786Z,75.06
2022-10-25T03:53:58.364Z,74.84
2022-10-25T03:56:25.950Z,74.83
2022-10-25T03:58:54.183Z,74.83
2022-10-25T04:01:22.113Z,75.24
2022-10-25T04:03:51.105Z,75.12
2022-10-25T04:06:18.653Z,75.22
2022-10-25T04:08:46.318Z,75.25
2022-10-25T04:11:13.936Z,75.46
2022-10-25T04:13:41.527Z,75.18
2022-10-25T04:16:09.746Z,75.41
2022-10-25T04:18:37.621Z,75.58
2022-10-25T04:21:06.883Z,75.45
2022-10-25T04:23:34.486Z,75.93
2022-10-25T04:26:02.045Z,76.13
2022-10-25T04:28:29.617Z,76.05
2022-10-25T04:30:57.168Z,75.92
2022-10-25T04:33:24.870Z,75.56
2022-10-25T04:35:56.938Z,75.84
2022-10-25T04:38:26.233Z,76.38
2022-10-25T04:40:55.157Z,76.57
2022-10-25T04:43:22.923Z,76.65
2022-10-25T04:45:50.507Z,76.96
2022-10-25T04:48:18.568Z,77.00
2022-10-25T04:50:46.679Z,77.70
2022-10-25T04:53:14.278Z,77.29
2022-10-25T04:55:43.202Z,77.37
2022-10-25T04:58:11.030Z,77.20
2022-10-25T05:00:38.636Z,76.89
2022-10-25T05:03:10.781Z,76.69
2022-10-25T05:05:41.135Z,76.81
2022-10-25T05:08:08.703Z,76.52
2022-10-25T05:10:39.182Z,76.51
2022-10-25T05:13:08.204Z,76.29
2022-10-25T05:15:35.769Z,76.64
2022-10-25T05:18:03.363Z,76.63
2022-10-25T05:20:30.874Z,76.62
2022-10-25T05:22:58.469Z,76.44
2022-10-25T05:25:26.117Z,76.49
2022-10-25T05:27:53.645Z,76.49
2022-10-25T05:30:22.602Z,77.11
2022-10-25T05:32:50.800Z,77.73
2022-10-25T05:35:18.362Z,76.92
2022-10-25T05:37:45.965Z,76.06
2022-10-25T05:40:13.803Z,75.28
2022-10-25T05:42:41.374Z,75.11
2022-10-25T05:45:09.665Z,75.23
2022-10-25T05:47:38.622Z,75.09
2022-10-25T05:50:06.984Z,74.83
2022-10-25T05:52:34.567Z,75.17
2022-10-25T05:55:02.511Z,74.43
2022-10-25T05:57:30.775Z,74.91
2022-10-25T05:59:58.338Z,75.09
2022-10-25T06:02:25.997Z,74.52
2022-10-25T06:04:54.931Z,74.29
2022-10-25T06:07:22.564Z,73.72
2022-10-25T06:09:50.184Z,74.04
2022-10-25T06:12:17.807Z,73.88
2022-10-25T06:14:45.390Z,74.36
2022-10-25T06:17:13.655Z,73.94
2022-10-25T06:19:41.200Z,73.90
2022-10-25T06:22:10.184Z,73.79
2022-10-25T06:24:37.803Z,73.86
2022-10-25T06:27:05.607Z,74.14
2022-10-25T06:29:33.563Z,74.15
2022-10-25T06:32:01.164Z,74.31
2022-10-25T06:34:28.810Z,74.18
2022-10-25T06:36:56.729Z,73.89
2022-10-25T06:39:25.633Z,73.75
2022-10-25T06:41:53.336Z,73.96
2022-10-25T06:44:20.919Z,73.94
2022-10-25T06:49:35.975Z,73.29
2022-10-25T06:52:03.591Z,74.01
2022-10-25T06:54:32.566Z,73.77
2022-10-25T06:57:00.161Z,73.23
2022-10-25T06:59:27.855Z,73.44
2022-10-25T07:01:57.230Z,73.29
2022-10-25T07:04:25.038Z,73.37
2022-10-25T07:06:55.191Z,73.39
2022-10-25T07:09:23.291Z,73.90
2022-10-25T07:11:52.447Z,73.27
2022-10-25T07:14:20.013Z,73.13
2022-10-25T07:16:47.570Z,73.31
2022-10-25T07:19:15.130Z,72.74
2022-10-25T07:21:42.696Z,72.71
2022-10-25T07:24:11.653Z,72.78
2022-10-25T07:26:40.342Z,72.73
2022-10-25T07:29:09.508Z,72.80
2022-10-25T07:31:41.164Z,72.77
2022-10-25T07:34:08.841Z,72.69
2022-10-25T07:36:36.422Z,72.58
2022-10-25T07:39:04.238Z,72.42
2022-10-25T07:41:31.778Z,72.25
2022-10-25T07:43:59.437Z,71.95
2022-10-25T07:46:28.420Z,72.23
2022-10-25T07:48:56.032Z,72.03
2022-10-25T07:51:23.651Z,71.54
2022-10-25T07:53:51.309Z,71.39
2022-10-25T07:56:23.357Z,71.44
2022-10-25T07:58:51.507Z,70.64
2022-10-25T08:01:21.907Z,70.41
2022-10-25T08:03:51.408Z,70.76
2022-10-25T08:06:19.738Z,70.39
2022-10-25T08:08:47.552Z,70.43
2022-10-25T08:11:15.564Z,69.88
2022-10-25T08:13:43.379Z,69.72
2022-10-25T08:16:11.008Z,69.94
2022-10-25T08:18:38.637Z,69.47
2022-10-25T08:21:07.749Z,68.70
2022-10-25T08:23:35.356Z,69.09
2022-10-25T08:26:03.403Z,68.80
2022-10-25T08:28:31.629Z,69.28
2022-10-25T08:31:00.704Z,68.41
2022-10-25T08:33:28.770Z,68.23
2022-10-25T08:35:56.331Z,67.90
2022-10-25T08:38:25.210Z,67.99
2022-10-25T08:40:59.060Z,67.51
2022-10-25T08:43:46.753Z,66.84
2022-10-25T08:46:20.035Z,66.56
2022-10-25T08:48:54.349Z,66.63
2022-10-25T08:51:27.142Z,66.38
2022-10-25T08:53:59.427Z,66.61
2022-10-25T08:56:29.099Z,66.65
2022-10-25T08:59:00.930Z,66.35
2022-10-25T09:01:31.203Z,66.27
2022-10-25T09:04:00.383Z,65.90
2022-10-25T09:06:34.777Z,65.43
2022-10-25T09:09:20.498Z,65.03
2022-10-25T09:12:00.203Z,64.55
2022-10-25T09:14:39.172Z,64.92
2022-10-25T09:17:17.982Z,64.82
2022-10-25T09:20:01.463Z,65.14
2022-10-25T09:22:31.120Z,64.80
2022-10-25T09:25:03.433Z,63.56
2022-10-25T09:27:36.593Z,63.95
2022-10-25T09:30:08.448Z,62.54
2022-10-25T09:32:40.309Z,63.23
2022-10-25T09:35:15.210Z,62.89
2022-10-25T09:37:46.743Z,63.55
2022-10-25T09:40:19.240Z,62.97
2022-10-25T09:42:52.010Z,63.34
2022-10-25T09:45:25.749Z,62.09
2022-10-25T09:48:01.334Z,62.25
2022-10-25T09:50:33.141Z,62.04
2022-10-25T09:53:12.242Z,62.33
2022-10-25T09:55:47.366Z,61.86
2022-10-25T09:58:20.405Z,61.83
2022-10-25T10:00:48.599Z,61.34
2022-10-25T10:03:16.293Z,60.94
2022-10-25T10:05:49.786Z,59.42
2022-10-25T10:08:17.335Z,58.13
2022-10-25T10:10:48.643Z,58.61
2022-10-25T10:13:22.789Z,57.67
2022-10-25T10:15:55.142Z,57.82
2022-10-25T10:18:28.348Z,57.58
2022-10-25T10:21:05.718Z,58.33
2022-10-25T10:23:38.340Z,58.00
2022-10-25T10:26:14.474Z,58.33
2022-10-25T10:28:46.780Z,57.26
2022-10-25T10:31:14.677Z,57.71
2022-10-25T10:33:48.151Z,57.34
2022-10-25T10:36:24.673Z,57.59
2022-10-25T10:38:52.451Z,56.86
2022-10-25T10:41:29.318Z,57.70
2022-10-25T10:44:12.808Z,57.21
2022-10-25T10:46:46.409Z,57.52
2022-10-25T10:49:15.292Z,58.30
2022-10-25T10:51:45.697Z,58.92
2022-10-25T10:54:15.766Z,58.88
2022-10-25T10:56:44.716Z,59.93
2022-10-25T10:59:29.145Z,59.77
2022-10-25T11:01:57.421Z,59.65
2022-10-25T11:04:26.232Z,59.79
2022-10-25T11:06:54.017Z,59.76
2022-10-25T11:09:24.876Z,59.09
2022-10-25T11:12:08.975Z,58.22
2022-10-25T11:14:36.609Z,58.77
2022-10-25T11:17:09.632Z,58.56
2022-10-25T11:20:03.386Z,58.30
2022-10-25T11:23:00.057Z,56.71
2022-10-25T11:25:38.535Z,57.39
2022-10-25T11:28:21.922Z,56.69
2022-10-25T11:31:02.452Z,56.91
2022-10-25T11:33:43.191Z,56.60
2022-10-25T11:36:26.597Z,56.35
2022-10-25T11:39:04.727Z,56.91
2022-10-25T11:41:44.578Z,57.81
2022-10-25T11:44:35.972Z,57.48
2022-10-25T11:47:07.292Z,56.25
2022-10-25T11:49:46.989Z,56.86
2022-10-25T11:52:39.546Z,57.22
2022-10-25T11:55:21.297Z,58.64
2022-10-25T11:57:57.298Z,57.60
2022-10-25T12:00:36.233Z,55.64
2022-10-25T12:03:17.086Z,56.35
2022-10-25T12:05:52.411Z,56.84
2022-10-25T12:08:35.291Z,56.34
2022-10-25T12:11:08.057Z,57.12
2022-10-25T12:13:39.849Z,58.01
2022-10-25T12:16:12.682Z,56.76
2022-10-25T12:18:43.123Z,56.80
2022-10-25T12:21:16.358Z,57.69
2022-10-25T12:23:46.443Z,57.64
2022-10-25T12:26:21.735Z,54.74
2022-10-25T12:28:51.607Z,54.06
2022-10-25T12:31:24.436Z,54.04
2022-10-25T12:33:56.599Z,55.76
2022-10-25T12:36:32.995Z,56.04
2022-10-25T12:39:03.217Z,53.93
2022-10-25T12:41:35.559Z,54.09
2022-10-25T12:44:15.886Z,54.09
2022-10-25T12:47:06.175Z,52.91
2022-10-25T12:49:55.049Z,52.76
2022-10-25T12:52:32.348Z,53.30
2022-10-25T12:55:47.302Z,54.28
2022-10-25T12:58:31.099Z,52.94
2022-10-25T13:01:12.179Z,53.25
2022-10-25T13:03:58.900Z,53.58
2022-10-25T13:06:32.470Z,54.93
2022-10-25T13:09:07.726Z,54.85
2022-10-25T13:11:38.824Z,54.42
2022-10-25T13:14:17.459Z,54.49
2022-10-25T13:16:45.093Z,55.22
2022-10-25T13:20:00.732Z,54.80
2022-10-25T13:22:59.152Z,54.93
2022-10-25T13:26:22.502Z,55.14
2022-10-25T13:28:51.986Z,55.27
2022-10-25T13:31:59.328Z,56.48
2022-10-25T13:34:34.284Z,51.75
2022-10-25T13:37:05.901Z,50.45
2022-10-25T13:39:37.976Z,49.34
2022-10-25T13:42:21.481Z,48.79
2022-10-25T13:44:55.591Z,49.02
2022-10-25T13:47:37.117Z,47.80
2022-10-25T13:53:02.522Z,47.24
2022-10-25T13:55:35.868Z,46.59
2022-10-25T13:58:24.791Z,48.25
2022-10-25T14:00:54.630Z,46.02
2022-10-25T14:03:27.993Z,45.74
2022-10-25T14:06:26.482Z,45.05
2022-10-25T14:09:09.795Z,44.78
2022-10-25T14:11:42.362Z,45.72
2022-10-25T14:14:27.949Z,45.67
2022-10-25T14:17:04.917Z,46.13
2022-10-25T14:19:37.794Z,46.88
2022-10-25T14:22:14.419Z,46.42
2022-10-25T14:24:44.975Z,47.05
2022-10-25T14:27:29.084Z,46.82
2022-10-25T14:30:21.571Z,46.76
2022-10-25T14:32:51.606Z,47.70
2022-10-25T14:35:19.721Z,49.10
2022-10-25T14:37:47.445Z,49.82
2022-10-25T14:40:21.918Z,50.56
2022-10-25T14:42:50.131Z,50.73
2022-10-25T14:45:22.348Z,51.09
2022-10-25T14:47:50.326Z,50.24
2022-10-25T14:50:21.881Z,50.32
2022-10-25T14:52:51.515Z,51.45
2022-10-25T14:55:28.300Z,48.98
2022-10-25T14:57:57.205Z,48.23
2022-10-25T15:00:25.556Z,50.50
2022-10-25T15:02:57.183Z,51.15
2022-10-25T15:05:26.788Z,49.60
2022-10-25T15:07:57.054Z,50.49
2022-10-25T15:10:38.588Z,51.76
2022-10-25T15:13:13.451Z,52.43
2022-10-25T15:15:44.745Z,52.83
2022-10-25T15:18:29.511Z,51.95
2022-10-25T15:21:12.228Z,53.07
2022-10-25T15:23:41.318Z,53.77
2022-10-25T15:26:24.772Z,54.18
2022-10-25T15:28:56.733Z,54.34
2022-10-25T15:31:28.354Z,54.77
2022-10-25T15:33:58.053Z,52.82
2022-10-25T15:36:28.831Z,54.19
2022-10-25T15:39:16.973Z,54.87
2022-10-25T15:41:48.267Z,55.37
2022-10-25T15:44:15.834Z,55.71
2022-10-25T15:46:43.872Z,55.63
2022-10-25T15:49:13.577Z,55.92
2022-10-25T15:51:43.059Z,55.54
2022-10-25T15:54:15.402Z,56.28
2022-10-25T15:56:43.478Z,56.60
2022-10-25T15:59:13.607Z,56.82
2022-10-25T16:01:44.366Z,56.84
2022-10-25T16:04:14.695Z,57.22
2022-10-25T16:06:42.673Z,57.38
2022-10-25T16:09:10.891Z,57.49
2022-10-25T16:11:43.734Z,57.51
2022-10-25T16:14:22.326Z,57.68
2022-10-25T16:16:50.562Z,58.06
2022-10-25T16:19:19.399Z,58.04
2022-10-25T16:21:47.238Z,58.05
2022-10-25T16:24:15.352Z,58.13
2022-10-25T16:26:45.160Z,58.36
2022-10-25T16:29:20.442Z,57.33
2022-10-25T16:31:48.229Z,57.64
2022-10-25T16:34:17.241Z,58.02
2022-10-25T16:36:44.889Z,58.16
2022-10-25T16:39:12.862Z,58.19
2022-10-25T16:41:41.987Z,58.33
2022-10-25T16:44:12.807Z,58.63
2022-10-25T16:46:48.468Z,58.82
2022-10-25T16:49:16.309Z,59.06
2022-10-25T16:51:44.449Z,59.18
2022-10-25T16:54:15.676Z,57.74
2022-10-25T16:56:45.152Z,57.09
2022-10-25T16:59:12.687Z,58.04
2022-10-25T17:01:44.543Z,58.32
2022-10-25T17:04:17.934Z,58.93
2022-10-25T17:06:45.547Z,59.16
2022-10-25T17:09:13.112Z,59.54
2022-10-25T17:11:40.894Z,59.42
2022-10-25T17:14:09.578Z,59.78
2022-10-25T17:16:37.792Z,60.32
2022-10-25T17:19:06.739Z,60.11
2022-10-25T17:21:35.734Z,60.44
2022-10-25T17:26:39.527Z,60.32
2022-10-25T17:29:09.898Z,60.52
2022-10-25T17:31:39.290Z,60.76
2022-10-25T17:34:11.118Z,60.82
2022-10-25T17:36:38.767Z,61.03
2022-10-25T17:39:08.137Z,60.95
2022-10-25T17:41:35.951Z,60.88
2022-10-25T17:44:04.047Z,61.14
2022-10-25T17:46:32.699Z,61.66
2022-10-25T17:49:03.453Z,61.74
2022-10-25T17:51:34.132Z,61.67
2022-10-25T17:54:01.831Z,61.52
2022-10-25T17:58:58.863Z,62.32
2022-10-25T18:01:31.831Z,61.92
2022-10-25T18:03:59.494Z,62.45
2022-10-25T18:06:27.425Z,62.50
2022-10-25T18:08:57.824Z,62.20
2022-10-25T18:11:27.124Z,62.94
2022-10-25T18:13:56.292Z,62.20
2022-10-25T18:16:26.558Z,62.58
2022-10-25T18:18:54.588Z,62.82
2022-10-25T18:21:22.253Z,62.65
2022-10-25T18:23:50.043Z,62.84
2022-10-25T18:26:18.943Z,62.34
2022-10-25T18:28:46.631Z,60.99
2022-10-25T18:31:14.533Z,60.72
2022-10-25T18:33:43.739Z,60.10
2022-10-25T18:36:13.038Z,60.18
2022-10-25T18:38:40.595Z,60.11
2022-10-25T18:41:10.564Z,60.24
2022-10-25T18:43:39.773Z,60.59
2022-10-25T18:46:07.404Z,60.58
2022-10-25T18:48:35.021Z,60.84
2022-10-25T18:51:06.627Z,61.44
2022-10-25T18:53:35.377Z,61.34
2022-10-25T18:56:03.363Z,61.74
2022-10-25T18:58:31.253Z,62.20
2022-10-25T19:01:07.396Z,62.78
2022-10-25T19:03:35.447Z,62.84
2022-10-25T19:06:03.299Z,62.62
2022-10-25T19:08:30.956Z,63.03
2022-10-25T19:10:58.750Z,63.41
2022-10-25T19:13:28.101Z,62.97
2022-10-25T19:15:58.145Z,62.81
2022-10-25T19:18:28.253Z,62.68
2022-10-25T19:21:01.210Z,63.06
2022-10-25T19:23:28.831Z,62.67
2022-10-25T19:25:56.402Z,62.57
2022-10-25T19:28:24.686Z,62.17
2022-10-25T19:30:52.266Z,62.23
2022-10-25T19:33:20.559Z,62.41
2022-10-25T19:35:49.502Z,62.80
2022-10-25T19:38:17.092Z,62.81
2022-10-25T19:40:45.849Z,63.03
2022-10-25T19:43:14.781Z,63.18
2022-10-25T19:45:43.254Z,63.90
2022-10-25T19:48:10.822Z,64.38
2022-10-25T19:50:39.040Z,64.62
2022-10-25T19:53:08.005Z,65.13
2022-10-25T19:55:35.960Z,65.63
2022-10-25T19:58:07.748Z,64.46
2022-10-25T20:00:35.381Z,64.44
2022-10-25T20:03:03.108Z,64.13
2022-10-25T20:05:30.828Z,63.88
2022-10-25T20:07:58.468Z,63.23
2022-10-25T20:10:27.465Z,63.65
2022-10-25T20:12:55.679Z,63.64
2022-10-25T20:15:23.295Z,63.99
2022-10-25T20:17:58.116Z,64.73
2022-10-25T20:20:25.746Z,64.85
2022-10-25T20:22:53.345Z,65.32
2022-10-25T20:25:20.954Z,65.56
2022-10-25T20:27:50.227Z,65.32
2022-10-25T20:30:18.307Z,65.71
2022-10-25T20:32:45.931Z,65.60
2022-10-25T20:35:13.600Z,65.37
2022-10-25T20:37:41.176Z,65.45
2022-10-25T20:40:09.854Z,64.94
2022-10-25T20:42:37.396Z,64.31
2022-10-25T20:45:07.220Z,63.94
2022-10-25T20:47:34.870Z,64.34
2022-10-25T20:50:02.535Z,64.48
2022-10-25T20:52:30.186Z,64.55
2022-10-25T20:54:57.835Z,64.61
2022-10-25T20:57:25.445Z,64.53
2022-10-25T20:59:52.998Z,64.82
2022-10-25T21:02:21.949Z,64.87
2022-10-25T21:04:53.821Z,65.07
2022-10-25T21:07:21.930Z,65.24
2022-10-25T21:09:49.746Z,64.97
2022-10-25T21:12:17.550Z,65.44
2022-10-25T21:14:45.182Z,66.37
2022-10-25T21:17:12.867Z,65.47
2022-10-25T21:19:41.811Z,65.69
2022-10-25T21:22:09.404Z,65.75
2022-10-25T21:24:37.070Z,65.98
2022-10-25T21:27:04.814Z,65.28
2022-10-25T21:29:32.469Z,64.42
2022-10-25T21:32:01.523Z,64.31
2022-10-25T21:34:29.179Z,64.47
2022-10-25T21:36:58.160Z,64.23
2022-10-25T21:39:25.752Z,64.05
2022-10-25T21:41:53.917Z,63.79
2022-10-25T21:44:22.258Z,63.87
2022-10-25T21:46:49.960Z,64.59
2022-10-25T21:49:17.557Z,64.50
2022-10-25T21:51:45.171Z,64.11
2022-10-25T21:54:14.172Z,65.13
2022-10-25T21:56:41.809Z,65.25
2022-10-25T21:59:09.423Z,64.55
2022-10-25T22:01:37.164Z,64.60
2022-10-25T22:04:05.161Z,64.04
2022-10-25T22:06:32.803Z,64.40
2022-10-25T22:09:00.507Z,64.67
2022-10-25T22:11:32.719Z,64.51
2022-10-25T22:14:02.307Z,64.89
2022-10-25T22:16:31.122Z,64.80
2022-10-25T22:19:00.391Z,64.94
2022-10-25T22:21:29.906Z,65.05
2022-10-25T22:23:57.564Z,65.55
2022-10-25T22:26:25.593Z,66.12
2022-10-25T22:28:55.336Z,65.90
2022-10-25T22:31:24.026Z,66.20
2022-10-25T22:33:54.795Z,65.14
2022-10-25T22:36:24.469Z,64.55
2022-10-25T22:38:52.168Z,65.15
2022-10-25T22:41:23.949Z,65.90
2022-10-25T22:43:52.052Z,65.77
2022-10-25T22:46:24.891Z,66.22
2022-10-25T22:48:54.004Z,66.40
2022-10-25T22:51:22.301Z,66.57
2022-10-25T22:53:50.615Z,67.23
2022-10-25T22:56:20.324Z,66.96
2022-10-25T22:58:50.097Z,65.18
2022-10-25T23:01:19.988Z,64.65
2022-10-25T23:03:52.009Z,64.56
2022-10-25T23:06:25.081Z,65.21
2022-10-25T23:08:53.953Z,66.25
2022-10-25T23:11:23.869Z,67.08
2022-10-25T23:13:51.545Z,67.56
2022-10-25T23:16:19.238Z,68.35
2022-10-25T23:18:47.402Z,68.89
2022-10-25T23:21:18.832Z,68.86
2022-10-25T23:23:47.492Z,69.09
2022-10-25T23:26:20.161Z,68.86
2022-10-25T23:28:48.373Z,67.72
2022-10-25T23:31:17.357Z,68.19
2022-10-25T23:33:45.251Z,68.51
2022-10-25T23:36:14.217Z,68.22
2022-10-25T23:38:44.196Z,68.69
2022-10-25T23:41:12.451Z,68.89
2022-10-25T23:43:40.766Z,69.17
2022-10-25T23:46:09.316Z,69.52
2022-10-25T23:48:37.432Z,68.88
2022-10-25T23:51:06.752Z,66.79
2022-10-25T23:53:35.077Z,65.34
2022-10-25T23:56:06.228Z,64.90
2022-10-25T23:58:34.059Z,65.24
